sensor_id;sensor_type;location;lat;lon;timestamp;temperature;humidity
8862;DHT22;4799;50.996;4.754;2023-01-23T00:00:44;2.00;99.90
8862;DHT22;4799;50.996;4.754;2023-01-23T00:03:10;2.00;99.90
8862;DHT22;4799;50.996;4.754;2023-01-23T00:05:36;2.00;99.90
8862;DHT22;4799;50.996;4.754;2023-01-23T00:08:01;2.00;99.90
8862;DHT22;4799;50.996;4.754;2023-01-23T00:10:27;2.00;99.90
8862;DHT22;4799;50.996;4.754;2023-01-23T00:12:53;2.00;99.90
8862;DHT22;4799;50.996;4.754;2023-01-23T00:15:19;2.00;99.90
8862;DHT22;4799;50.996;4.754;2023-01-23T00:17:45;2.00;99.90
8862;DHT22;4799;50.996;4.754;2023-01-23T00:20:11;2.00;99.90
8862;DHT22;4799;50.996;4.754;2023-01-23T00:22:38;2.00;99.90
8862;DHT22;4799;50.996;4.754;2023-01-23T00:25:05;1.90;99.90
8862;DHT22;4799;50.996;4.754;2023-01-23T00:27:31;1.90;99.90
8862;DHT22;4799;50.996;4.754;2023-01-23T00:29:57;2.00;99.90
8862;DHT22;4799;50.996;4.754;2023-01-23T00:32:23;1.90;99.90
8862;DHT22;4799;50.996;4.754;2023-01-23T00:34:49;2.00;99.90
8862;DHT22;4799;50.996;4.754;2023-01-23T00:37:15;2.00;99.90
8862;DHT22;4799;50.996;4.754;2023-01-23T00:39:42;2.00;99.90
8862;DHT22;4799;50.996;4.754;2023-01-23T00:42:08;2.00;99.90
8862;DHT22;4799;50.996;4.754;2023-01-23T00:44:33;1.90;99.90
8862;DHT22;4799;50.996;4.754;2023-01-23T00:46:59;2.00;99.90
8862;DHT22;4799;50.996;4.754;2023-01-23T00:49:25;1.90;99.90
8862;DHT22;4799;50.996;4.754;2023-01-23T00:51:51;2.00;99.90
8862;DHT22;4799;50.996;4.754;2023-01-23T00:54:19;1.90;99.90
8862;DHT22;4799;50.996;4.754;2023-01-23T00:56:46;1.90;99.90
8862;DHT22;4799;50.996;4.754;2023-01-23T00:59:12;1.90;99.90
8862;DHT22;4799;50.996;4.754;2023-01-23T01:01:38;1.90;99.90
8862;DHT22;4799;50.996;4.754;2023-01-23T01:04:04;1.90;99.90
8862;DHT22;4799;50.996;4.754;2023-01-23T01:06:30;1.90;99.90
8862;DHT22;4799;50.996;4.754;2023-01-23T01:08:56;2.00;99.90
8862;DHT22;4799;50.996;4.754;2023-01-23T01:11:22;2.00;99.90
8862;DHT22;4799;50.996;4.754;2023-01-23T01:13:48;2.00;99.90
8862;DHT22;4799;50.996;4.754;2023-01-23T01:16:15;2.00;99.90
8862;DHT22;4799;50.996;4.754;2023-01-23T01:18:41;2.00;99.90
8862;DHT22;4799;50.996;4.754;2023-01-23T01:21:12;2.00;99.90
8862;DHT22;4799;50.996;4.754;2023-01-23T01:23:39;2.00;99.90
8862;DHT22;4799;50.996;4.754;2023-01-23T01:26:05;2.00;99.90
8862;DHT22;4799;50.996;4.754;2023-01-23T01:28:33;2.00;99.90
8862;DHT22;4799;50.996;4.754;2023-01-23T01:31:05;2.00;99.90
8862;DHT22;4799;50.996;4.754;2023-01-23T01:33:31;2.00;99.90
8862;DHT22;4799;50.996;4.754;2023-01-23T01:35:57;2.00;99.90
8862;DHT22;4799;50.996;4.754;2023-01-23T01:38:24;2.00;99.90
8862;DHT22;4799;50.996;4.754;2023-01-23T01:40:49;2.00;99.90
8862;DHT22;4799;50.996;4.754;2023-01-23T01:43:24;2.00;99.90
8862;DHT22;4799;50.996;4.754;2023-01-23T01:46:13;2.00;99.90
8862;DHT22;4799;50.996;4.754;2023-01-23T01:57:03;2.00;99.90
8862;DHT22;4799;50.996;4.754;2023-01-23T01:59:51;2.00;99.90
8862;DHT22;4799;50.996;4.754;2023-01-23T02:02:26;2.00;99.90
8862;DHT22;4799;50.996;4.754;2023-01-23T02:05:05;2.00;99.90
8862;DHT22;4799;50.996;4.754;2023-01-23T02:07:43;2.00;99.90
8862;DHT22;4799;50.996;4.754;2023-01-23T02:10:10;2.00;99.90
8862;DHT22;4799;50.996;4.754;2023-01-23T02:12:36;2.00;99.90
8862;DHT22;4799;50.996;4.754;2023-01-23T02:15:05;2.00;99.90
8862;DHT22;4799;50.996;4.754;2023-01-23T02:17:33;2.00;99.90
8862;DHT22;4799;50.996;4.754;2023-01-23T02:20:23;2.00;99.90
8862;DHT22;4799;50.996;4.754;2023-01-23T02:28:15;2.00;99.90
8862;DHT22;4799;50.996;4.754;2023-01-23T02:30:43;2.00;99.90
8862;DHT22;4799;50.996;4.754;2023-01-23T02:35:49;2.00;99.90
8862;DHT22;4799;50.996;4.754;2023-01-23T02:38:17;2.00;99.90
8862;DHT22;4799;50.996;4.754;2023-01-23T02:40:44;2.00;99.90
8862;DHT22;4799;50.996;4.754;2023-01-23T02:43:13;2.00;99.90
8862;DHT22;4799;50.996;4.754;2023-01-23T02:45:39;2.00;99.90
8862;DHT22;4799;50.996;4.754;2023-01-23T02:48:05;2.00;99.90
8862;DHT22;4799;50.996;4.754;2023-01-23T02:50:33;2.00;99.90
8862;DHT22;4799;50.996;4.754;2023-01-23T02:52:59;2.00;99.90
8862;DHT22;4799;50.996;4.754;2023-01-23T02:55:25;2.00;99.90
8862;DHT22;4799;50.996;4.754;2023-01-23T02:57:54;2.00;99.90
8862;DHT22;4799;50.996;4.754;2023-01-23T03:00:42;2.00;99.90
8862;DHT22;4799;50.996;4.754;2023-01-23T03:03:08;2.00;99.90
8862;DHT22;4799;50.996;4.754;2023-01-23T03:05:34;2.00;99.90
8862;DHT22;4799;50.996;4.754;2023-01-23T03:08:00;2.00;99.90
8862;DHT22;4799;50.996;4.754;2023-01-23T03:10:25;2.00;99.90
8862;DHT22;4799;50.996;4.754;2023-01-23T03:12:51;2.10;99.90
8862;DHT22;4799;50.996;4.754;2023-01-23T03:15:17;2.00;99.90
8862;DHT22;4799;50.996;4.754;2023-01-23T03:17:43;2.00;99.90
8862;DHT22;4799;50.996;4.754;2023-01-23T03:20:09;2.10;99.90
8862;DHT22;4799;50.996;4.754;2023-01-23T03:22:35;2.10;99.90
8862;DHT22;4799;50.996;4.754;2023-01-23T03:25:01;2.10;99.90
8862;DHT22;4799;50.996;4.754;2023-01-23T03:27:27;2.10;99.90
8862;DHT22;4799;50.996;4.754;2023-01-23T03:29:52;2.10;99.90
8862;DHT22;4799;50.996;4.754;2023-01-23T03:32:36;2.10;99.90
8862;DHT22;4799;50.996;4.754;2023-01-23T03:35:04;2.10;99.90
8862;DHT22;4799;50.996;4.754;2023-01-23T03:37:30;2.10;99.90
8862;DHT22;4799;50.996;4.754;2023-01-23T03:39:56;2.10;99.90
8862;DHT22;4799;50.996;4.754;2023-01-23T03:42:40;2.10;99.90
8862;DHT22;4799;50.996;4.754;2023-01-23T03:45:06;2.10;99.90
8862;DHT22;4799;50.996;4.754;2023-01-23T03:47:32;2.10;99.90
8862;DHT22;4799;50.996;4.754;2023-01-23T03:49:58;2.10;99.90
8862;DHT22;4799;50.996;4.754;2023-01-23T03:52:24;2.10;99.90
8862;DHT22;4799;50.996;4.754;2023-01-23T03:54:50;2.10;99.90
8862;DHT22;4799;50.996;4.754;2023-01-23T03:57:16;2.10;99.90
8862;DHT22;4799;50.996;4.754;2023-01-23T03:59:42;2.10;99.90
8862;DHT22;4799;50.996;4.754;2023-01-23T04:02:07;2.10;99.90
8862;DHT22;4799;50.996;4.754;2023-01-23T04:04:34;2.10;99.90
8862;DHT22;4799;50.996;4.754;2023-01-23T04:07:01;2.10;99.90
8862;DHT22;4799;50.996;4.754;2023-01-23T04:09:27;2.10;99.90
8862;DHT22;4799;50.996;4.754;2023-01-23T04:11:53;2.10;99.90
8862;DHT22;4799;50.996;4.754;2023-01-23T04:14:20;2.10;99.90
8862;DHT22;4799;50.996;4.754;2023-01-23T04:16:46;2.10;99.90
8862;DHT22;4799;50.996;4.754;2023-01-23T04:19:11;2.10;99.90
8862;DHT22;4799;50.996;4.754;2023-01-23T04:21:38;2.10;99.90
8862;DHT22;4799;50.996;4.754;2023-01-23T04:24:04;2.10;99.90
8862;DHT22;4799;50.996;4.754;2023-01-23T04:26:30;2.10;99.90
8862;DHT22;4799;50.996;4.754;2023-01-23T04:28:55;2.10;99.90
8862;DHT22;4799;50.996;4.754;2023-01-23T04:31:21;2.10;99.90
8862;DHT22;4799;50.996;4.754;2023-01-23T04:33:47;2.10;99.90
8862;DHT22;4799;50.996;4.754;2023-01-23T04:36:13;2.10;99.90
8862;DHT22;4799;50.996;4.754;2023-01-23T04:38:38;2.20;99.90
8862;DHT22;4799;50.996;4.754;2023-01-23T04:41:04;2.10;99.90
8862;DHT22;4799;50.996;4.754;2023-01-23T04:43:30;2.20;99.90
8862;DHT22;4799;50.996;4.754;2023-01-23T04:45:56;2.20;99.90
8862;DHT22;4799;50.996;4.754;2023-01-23T04:48:23;2.20;99.90
8862;DHT22;4799;50.996;4.754;2023-01-23T04:50:49;2.10;99.90
8862;DHT22;4799;50.996;4.754;2023-01-23T04:53:15;2.20;99.90
8862;DHT22;4799;50.996;4.754;2023-01-23T04:55:41;2.20;99.90
8862;DHT22;4799;50.996;4.754;2023-01-23T04:58:07;2.20;99.90
8862;DHT22;4799;50.996;4.754;2023-01-23T05:00:36;2.20;99.90
8862;DHT22;4799;50.996;4.754;2023-01-23T05:03:02;2.20;99.90
8862;DHT22;4799;50.996;4.754;2023-01-23T05:05:27;2.20;99.90
8862;DHT22;4799;50.996;4.754;2023-01-23T05:07:53;2.20;99.90
8862;DHT22;4799;50.996;4.754;2023-01-23T05:10:19;2.20;99.90
8862;DHT22;4799;50.996;4.754;2023-01-23T05:12:45;2.20;99.90
8862;DHT22;4799;50.996;4.754;2023-01-23T05:15:11;2.20;99.90
8862;DHT22;4799;50.996;4.754;2023-01-23T05:17:37;2.20;99.90
8862;DHT22;4799;50.996;4.754;2023-01-23T05:20:04;2.20;99.90
8862;DHT22;4799;50.996;4.754;2023-01-23T05:22:30;2.20;99.90
8862;DHT22;4799;50.996;4.754;2023-01-23T05:24:55;2.20;99.90
8862;DHT22;4799;50.996;4.754;2023-01-23T05:27:21;2.20;99.90
8862;DHT22;4799;50.996;4.754;2023-01-23T05:29:47;2.20;99.90
8862;DHT22;4799;50.996;4.754;2023-01-23T05:32:13;2.20;99.90
8862;DHT22;4799;50.996;4.754;2023-01-23T05:34:40;2.20;99.90
8862;DHT22;4799;50.996;4.754;2023-01-23T05:37:05;2.20;99.90
8862;DHT22;4799;50.996;4.754;2023-01-23T05:39:31;2.20;99.90
8862;DHT22;4799;50.996;4.754;2023-01-23T05:41:57;2.20;99.90
8862;DHT22;4799;50.996;4.754;2023-01-23T05:44:23;2.20;99.90
8862;DHT22;4799;50.996;4.754;2023-01-23T05:46:49;2.20;99.90
8862;DHT22;4799;50.996;4.754;2023-01-23T05:49:15;2.30;99.90
8862;DHT22;4799;50.996;4.754;2023-01-23T05:51:41;2.20;99.90
8862;DHT22;4799;50.996;4.754;2023-01-23T05:54:09;2.20;99.90
8862;DHT22;4799;50.996;4.754;2023-01-23T05:56:34;2.20;99.90
8862;DHT22;4799;50.996;4.754;2023-01-23T05:59:00;2.20;99.90
8862;DHT22;4799;50.996;4.754;2023-01-23T06:01:26;2.30;99.90
8862;DHT22;4799;50.996;4.754;2023-01-23T06:03:52;2.20;99.90
8862;DHT22;4799;50.996;4.754;2023-01-23T06:06:17;2.20;99.90
8862;DHT22;4799;50.996;4.754;2023-01-23T06:08:43;2.20;99.90
8862;DHT22;4799;50.996;4.754;2023-01-23T06:11:09;2.20;99.90
8862;DHT22;4799;50.996;4.754;2023-01-23T06:13:35;2.20;99.90
8862;DHT22;4799;50.996;4.754;2023-01-23T06:16:01;2.30;99.90
8862;DHT22;4799;50.996;4.754;2023-01-23T06:18:27;2.30;99.90
8862;DHT22;4799;50.996;4.754;2023-01-23T06:20:59;2.30;99.90
8862;DHT22;4799;50.996;4.754;2023-01-23T06:23:26;2.30;99.90
8862;DHT22;4799;50.996;4.754;2023-01-23T06:25:51;2.30;99.90
8862;DHT22;4799;50.996;4.754;2023-01-23T06:28:17;2.30;99.90
8862;DHT22;4799;50.996;4.754;2023-01-23T06:30:43;2.30;99.90
8862;DHT22;4799;50.996;4.754;2023-01-23T06:33:08;2.30;99.90
8862;DHT22;4799;50.996;4.754;2023-01-23T06:35:34;2.30;99.90
8862;DHT22;4799;50.996;4.754;2023-01-23T06:38:00;2.30;99.90
8862;DHT22;4799;50.996;4.754;2023-01-23T06:40:26;2.30;99.90
8862;DHT22;4799;50.996;4.754;2023-01-23T06:42:55;2.30;99.90
8862;DHT22;4799;50.996;4.754;2023-01-23T06:45:21;2.30;99.90
8862;DHT22;4799;50.996;4.754;2023-01-23T06:47:46;2.30;99.90
8862;DHT22;4799;50.996;4.754;2023-01-23T06:50:12;2.30;99.90
8862;DHT22;4799;50.996;4.754;2023-01-23T06:52:38;2.30;99.90
8862;DHT22;4799;50.996;4.754;2023-01-23T06:55:04;2.30;99.90
8862;DHT22;4799;50.996;4.754;2023-01-23T06:57:31;2.30;99.90
8862;DHT22;4799;50.996;4.754;2023-01-23T06:59:56;2.30;99.90
8862;DHT22;4799;50.996;4.754;2023-01-23T07:02:22;2.30;99.90
8862;DHT22;4799;50.996;4.754;2023-01-23T07:04:48;2.30;99.90
8862;DHT22;4799;50.996;4.754;2023-01-23T07:07:14;2.30;99.90
8862;DHT22;4799;50.996;4.754;2023-01-23T07:09:40;2.40;99.90
8862;DHT22;4799;50.996;4.754;2023-01-23T07:12:06;2.30;99.90
8862;DHT22;4799;50.996;4.754;2023-01-23T07:14:32;2.30;99.90
8862;DHT22;4799;50.996;4.754;2023-01-23T07:16:58;2.30;99.90
8862;DHT22;4799;50.996;4.754;2023-01-23T07:19:24;2.30;99.90
8862;DHT22;4799;50.996;4.754;2023-01-23T07:21:50;2.30;99.90
8862;DHT22;4799;50.996;4.754;2023-01-23T07:24:16;2.30;99.90
8862;DHT22;4799;50.996;4.754;2023-01-23T07:26:41;2.40;99.90
8862;DHT22;4799;50.996;4.754;2023-01-23T07:29:07;2.30;99.90
8862;DHT22;4799;50.996;4.754;2023-01-23T07:31:34;2.40;99.90
8862;DHT22;4799;50.996;4.754;2023-01-23T07:33:59;2.40;99.90
8862;DHT22;4799;50.996;4.754;2023-01-23T07:36:27;2.40;99.90
8862;DHT22;4799;50.996;4.754;2023-01-23T07:38:54;2.30;99.90
8862;DHT22;4799;50.996;4.754;2023-01-23T07:41:20;2.30;99.90
8862;DHT22;4799;50.996;4.754;2023-01-23T07:43:45;2.30;99.90
8862;DHT22;4799;50.996;4.754;2023-01-23T07:46:11;2.30;99.90
8862;DHT22;4799;50.996;4.754;2023-01-23T07:48:37;2.30;99.90
8862;DHT22;4799;50.996;4.754;2023-01-23T07:51:04;2.40;99.90
8862;DHT22;4799;50.996;4.754;2023-01-23T07:53:30;2.40;99.90
8862;DHT22;4799;50.996;4.754;2023-01-23T07:55:56;2.40;99.90
8862;DHT22;4799;50.996;4.754;2023-01-23T07:58:22;2.40;99.90
8862;DHT22;4799;50.996;4.754;2023-01-23T08:00:47;2.50;99.90
8862;DHT22;4799;50.996;4.754;2023-01-23T08:03:13;2.50;99.90
8862;DHT22;4799;50.996;4.754;2023-01-23T08:05:40;2.50;99.90
8862;DHT22;4799;50.996;4.754;2023-01-23T08:08:06;2.50;99.90
8862;DHT22;4799;50.996;4.754;2023-01-23T08:10:33;2.60;99.90
8862;DHT22;4799;50.996;4.754;2023-01-23T08:12:59;2.50;99.90
8862;DHT22;4799;50.996;4.754;2023-01-23T08:15:25;2.50;99.90
8862;DHT22;4799;50.996;4.754;2023-01-23T08:17:50;2.60;99.90
8862;DHT22;4799;50.996;4.754;2023-01-23T08:20:17;2.60;99.90
8862;DHT22;4799;50.996;4.754;2023-01-23T08:22:43;2.60;99.90
8862;DHT22;4799;50.996;4.754;2023-01-23T08:25:10;2.60;99.90
8862;DHT22;4799;50.996;4.754;2023-01-23T08:27:36;2.60;99.90
8862;DHT22;4799;50.996;4.754;2023-01-23T08:30:03;2.70;99.90
8862;DHT22;4799;50.996;4.754;2023-01-23T08:32:29;2.70;99.90
8862;DHT22;4799;50.996;4.754;2023-01-23T08:34:55;2.70;99.90
8862;DHT22;4799;50.996;4.754;2023-01-23T08:37:20;2.70;99.90
8862;DHT22;4799;50.996;4.754;2023-01-23T08:39:46;2.70;99.90
8862;DHT22;4799;50.996;4.754;2023-01-23T08:42:12;2.70;99.90
8862;DHT22;4799;50.996;4.754;2023-01-23T08:44:38;2.80;99.90
8862;DHT22;4799;50.996;4.754;2023-01-23T08:47:03;2.80;99.90
8862;DHT22;4799;50.996;4.754;2023-01-23T08:49:29;2.80;99.90
8862;DHT22;4799;50.996;4.754;2023-01-23T08:51:55;2.90;99.90
8862;DHT22;4799;50.996;4.754;2023-01-23T08:54:22;2.90;99.90
8862;DHT22;4799;50.996;4.754;2023-01-23T08:56:47;3.00;99.90
8862;DHT22;4799;50.996;4.754;2023-01-23T08:59:13;3.00;99.90
8862;DHT22;4799;50.996;4.754;2023-01-23T09:01:39;3.00;99.90
8862;DHT22;4799;50.996;4.754;2023-01-23T09:04:04;3.10;99.90
8862;DHT22;4799;50.996;4.754;2023-01-23T09:06:30;3.10;99.90
8862;DHT22;4799;50.996;4.754;2023-01-23T09:08:56;3.20;99.90
8862;DHT22;4799;50.996;4.754;2023-01-23T09:11:22;3.20;99.90
8862;DHT22;4799;50.996;4.754;2023-01-23T09:13:48;3.20;99.90
8862;DHT22;4799;50.996;4.754;2023-01-23T09:16:14;3.20;99.90
8862;DHT22;4799;50.996;4.754;2023-01-23T09:18:40;3.30;99.90
8862;DHT22;4799;50.996;4.754;2023-01-23T09:21:08;3.30;99.90
8862;DHT22;4799;50.996;4.754;2023-01-23T09:23:34;3.30;99.90
8862;DHT22;4799;50.996;4.754;2023-01-23T09:26:09;3.30;99.90
8862;DHT22;4799;50.996;4.754;2023-01-23T09:28:36;3.40;99.90
8862;DHT22;4799;50.996;4.754;2023-01-23T09:31:05;3.40;99.90
8862;DHT22;4799;50.996;4.754;2023-01-23T09:33:35;3.40;99.90
8862;DHT22;4799;50.996;4.754;2023-01-23T09:36:01;3.50;99.90
8862;DHT22;4799;50.996;4.754;2023-01-23T09:38:27;3.50;99.90
8862;DHT22;4799;50.996;4.754;2023-01-23T09:40:56;3.50;99.90
8862;DHT22;4799;50.996;4.754;2023-01-23T09:51:25;3.60;99.90
8862;DHT22;4799;50.996;4.754;2023-01-23T09:53:57;3.60;99.90
8862;DHT22;4799;50.996;4.754;2023-01-23T09:56:35;3.60;99.90
8862;DHT22;4799;50.996;4.754;2023-01-23T09:59:13;3.60;99.90
8862;DHT22;4799;50.996;4.754;2023-01-23T10:01:40;3.70;99.90
8862;DHT22;4799;50.996;4.754;2023-01-23T10:04:08;3.80;99.90
8862;DHT22;4799;50.996;4.754;2023-01-23T10:06:58;3.80;99.90
8862;DHT22;4799;50.996;4.754;2023-01-23T10:18:27;3.90;99.90
8862;DHT22;4799;50.996;4.754;2023-01-23T10:23:38;3.90;99.90
8862;DHT22;4799;50.996;4.754;2023-01-23T10:26:21;3.90;99.90
8862;DHT22;4799;50.996;4.754;2023-01-23T10:28:52;3.90;99.90
8862;DHT22;4799;50.996;4.754;2023-01-23T10:31:39;3.90;99.90
8862;DHT22;4799;50.996;4.754;2023-01-23T10:36:35;4.00;99.90
8862;DHT22;4799;50.996;4.754;2023-01-23T10:39:13;4.00;99.90
8862;DHT22;4799;50.996;4.754;2023-01-23T10:41:39;4.10;99.90
8862;DHT22;4799;50.996;4.754;2023-01-23T10:44:16;4.10;99.90
8862;DHT22;4799;50.996;4.754;2023-01-23T10:46:53;4.10;99.90
8862;DHT22;4799;50.996;4.754;2023-01-23T10:49:30;4.10;99.90
8862;DHT22;4799;50.996;4.754;2023-01-23T10:51:56;4.20;99.90
8862;DHT22;4799;50.996;4.754;2023-01-23T10:54:26;4.20;99.90
8862;DHT22;4799;50.996;4.754;2023-01-23T10:57:03;4.20;99.90
8862;DHT22;4799;50.996;4.754;2023-01-23T10:59:59;4.30;99.90
8862;DHT22;4799;50.996;4.754;2023-01-23T11:02:31;4.30;99.90
8862;DHT22;4799;50.996;4.754;2023-01-23T11:05:00;4.30;99.90
8862;DHT22;4799;50.996;4.754;2023-01-23T11:07:36;4.30;99.90
8862;DHT22;4799;50.996;4.754;2023-01-23T11:12:49;4.40;99.90
8862;DHT22;4799;50.996;4.754;2023-01-23T11:15:24;4.40;99.90
8862;DHT22;4799;50.996;4.754;2023-01-23T11:17:52;4.40;99.90
8862;DHT22;4799;50.996;4.754;2023-01-23T11:20:28;4.40;99.90
8862;DHT22;4799;50.996;4.754;2023-01-23T11:25:39;4.60;99.90
8862;DHT22;4799;50.996;4.754;2023-01-23T11:28:48;4.60;99.90
8862;DHT22;4799;50.996;4.754;2023-01-23T11:31:22;4.70;99.90
8862;DHT22;4799;50.996;4.754;2023-01-23T11:34:10;4.70;99.90
8862;DHT22;4799;50.996;4.754;2023-01-23T11:42:13;4.80;99.90
8862;DHT22;4799;50.996;4.754;2023-01-23T11:44:40;4.90;99.90
8862;DHT22;4799;50.996;4.754;2023-01-23T11:55:04;5.10;99.90
8862;DHT22;4799;50.996;4.754;2023-01-23T12:09:14;5.20;99.90
8862;DHT22;4799;50.996;4.754;2023-01-23T12:12:26;5.20;99.90
8862;DHT22;4799;50.996;4.754;2023-01-23T12:17:42;5.20;99.90
8862;DHT22;4799;50.996;4.754;2023-01-23T12:20:27;5.10;99.90
8862;DHT22;4799;50.996;4.754;2023-01-23T12:25:39;5.10;99.90
8862;DHT22;4799;50.996;4.754;2023-01-23T12:31:27;5.10;99.90
8862;DHT22;4799;50.996;4.754;2023-01-23T12:37:13;5.10;99.90
8862;DHT22;4799;50.996;4.754;2023-01-23T12:42:50;5.10;99.90
8862;DHT22;4799;50.996;4.754;2023-01-23T12:45:23;5.10;99.90
8862;DHT22;4799;50.996;4.754;2023-01-23T12:48:03;5.10;99.90
8862;DHT22;4799;50.996;4.754;2023-01-23T12:53:15;5.10;99.90
8862;DHT22;4799;50.996;4.754;2023-01-23T12:58:41;5.10;99.90
8862;DHT22;4799;50.996;4.754;2023-01-23T13:06:45;5.00;99.90
8862;DHT22;4799;50.996;4.754;2023-01-23T13:12:25;5.00;99.90
8862;DHT22;4799;50.996;4.754;2023-01-23T13:14:53;5.00;99.90
8862;DHT22;4799;50.996;4.754;2023-01-23T13:20:28;5.10;99.90
8862;DHT22;4799;50.996;4.754;2023-01-23T13:23:32;5.10;99.90
8862;DHT22;4799;50.996;4.754;2023-01-23T13:26:22;5.10;99.90
8862;DHT22;4799;50.996;4.754;2023-01-23T13:28:57;5.10;99.90
8862;DHT22;4799;50.996;4.754;2023-01-23T13:31:33;5.10;99.90
8862;DHT22;4799;50.996;4.754;2023-01-23T13:34:00;5.10;99.90
8862;DHT22;4799;50.996;4.754;2023-01-23T13:36:32;5.10;99.90
8862;DHT22;4799;50.996;4.754;2023-01-23T13:39:09;5.20;99.90
8862;DHT22;4799;50.996;4.754;2023-01-23T13:41:44;5.20;99.90
8862;DHT22;4799;50.996;4.754;2023-01-23T13:44:24;5.20;99.90
8862;DHT22;4799;50.996;4.754;2023-01-23T13:49:50;5.30;99.90
8862;DHT22;4799;50.996;4.754;2023-01-23T13:52:25;5.30;99.90
8862;DHT22;4799;50.996;4.754;2023-01-23T13:58:07;5.10;99.90
8862;DHT22;4799;50.996;4.754;2023-01-23T14:00:36;5.10;99.90
8862;DHT22;4799;50.996;4.754;2023-01-23T14:03:17;5.00;99.90
8862;DHT22;4799;50.996;4.754;2023-01-23T14:06:10;5.00;99.90
8862;DHT22;4799;50.996;4.754;2023-01-23T14:08:50;5.00;99.90
8862;DHT22;4799;50.996;4.754;2023-01-23T14:11:18;4.90;99.90
8862;DHT22;4799;50.996;4.754;2023-01-23T14:13:49;4.90;99.90
8862;DHT22;4799;50.996;4.754;2023-01-23T14:16:16;4.90;99.90
8862;DHT22;4799;50.996;4.754;2023-01-23T14:18:54;4.80;99.90
8862;DHT22;4799;50.996;4.754;2023-01-23T14:21:25;4.80;99.90
8862;DHT22;4799;50.996;4.754;2023-01-23T14:23:53;4.70;99.90
8862;DHT22;4799;50.996;4.754;2023-01-23T14:26:27;4.80;99.90
8862;DHT22;4799;50.996;4.754;2023-01-23T14:29:03;4.80;99.90
8862;DHT22;4799;50.996;4.754;2023-01-23T14:31:32;4.80;99.90
8862;DHT22;4799;50.996;4.754;2023-01-23T14:34:13;4.80;99.90
8862;DHT22;4799;50.996;4.754;2023-01-23T14:36:42;4.80;99.90
8862;DHT22;4799;50.996;4.754;2023-01-23T14:39:25;4.80;99.90
8862;DHT22;4799;50.996;4.754;2023-01-23T14:41:54;4.90;99.90
8862;DHT22;4799;50.996;4.754;2023-01-23T14:44:24;4.90;99.90
8862;DHT22;4799;50.996;4.754;2023-01-23T14:46:55;4.80;99.90
8862;DHT22;4799;50.996;4.754;2023-01-23T14:49:30;4.90;99.90
8862;DHT22;4799;50.996;4.754;2023-01-23T14:51:59;4.90;99.90
8862;DHT22;4799;50.996;4.754;2023-01-23T14:54:25;4.80;99.90
8862;DHT22;4799;50.996;4.754;2023-01-23T14:56:52;4.70;99.90
8862;DHT22;4799;50.996;4.754;2023-01-23T14:59:34;4.70;99.90
8862;DHT22;4799;50.996;4.754;2023-01-23T15:02:18;4.70;99.90
8862;DHT22;4799;50.996;4.754;2023-01-23T15:07:58;4.60;99.90
8862;DHT22;4799;50.996;4.754;2023-01-23T15:12:59;4.50;99.90
8862;DHT22;4799;50.996;4.754;2023-01-23T15:15:28;4.50;99.90
8862;DHT22;4799;50.996;4.754;2023-01-23T15:17:55;4.50;99.90
8862;DHT22;4799;50.996;4.754;2023-01-23T15:20:35;4.50;99.90
8862;DHT22;4799;50.996;4.754;2023-01-23T15:25:47;4.40;99.90
8862;DHT22;4799;50.996;4.754;2023-01-23T15:31:04;4.30;99.90
8862;DHT22;4799;50.996;4.754;2023-01-23T15:33:31;4.30;99.90
8862;DHT22;4799;50.996;4.754;2023-01-23T15:36:27;4.30;99.90
8862;DHT22;4799;50.996;4.754;2023-01-23T15:38:56;4.30;99.90
8862;DHT22;4799;50.996;4.754;2023-01-23T15:44:39;4.20;99.90
8862;DHT22;4799;50.996;4.754;2023-01-23T15:47:05;4.20;99.90
8862;DHT22;4799;50.996;4.754;2023-01-23T15:49:33;4.20;99.90
8862;DHT22;4799;50.996;4.754;2023-01-23T15:54:46;4.20;99.90
8862;DHT22;4799;50.996;4.754;2023-01-23T15:57:12;4.20;99.90
8862;DHT22;4799;50.996;4.754;2023-01-23T15:59:38;4.20;99.90
8862;DHT22;4799;50.996;4.754;2023-01-23T16:02:05;4.20;99.90
8862;DHT22;4799;50.996;4.754;2023-01-23T16:04:31;4.20;99.90
8862;DHT22;4799;50.996;4.754;2023-01-23T16:07:05;4.10;99.90
8862;DHT22;4799;50.996;4.754;2023-01-23T16:09:33;4.20;99.90
8862;DHT22;4799;50.996;4.754;2023-01-23T16:12:00;4.10;99.90
8862;DHT22;4799;50.996;4.754;2023-01-23T16:14:27;4.00;99.90
8862;DHT22;4799;50.996;4.754;2023-01-23T16:16:53;4.00;99.90
8862;DHT22;4799;50.996;4.754;2023-01-23T16:19:19;4.10;99.90
8862;DHT22;4799;50.996;4.754;2023-01-23T16:21:46;4.10;99.90
8862;DHT22;4799;50.996;4.754;2023-01-23T16:24:20;4.00;99.90
8862;DHT22;4799;50.996;4.754;2023-01-23T16:26:48;4.00;99.90
8862;DHT22;4799;50.996;4.754;2023-01-23T16:29:26;4.00;99.90
8862;DHT22;4799;50.996;4.754;2023-01-23T16:31:52;4.00;99.90
8862;DHT22;4799;50.996;4.754;2023-01-23T16:34:18;4.00;99.90
8862;DHT22;4799;50.996;4.754;2023-01-23T16:36:44;4.00;99.90
8862;DHT22;4799;50.996;4.754;2023-01-23T16:39:16;4.00;99.90
8862;DHT22;4799;50.996;4.754;2023-01-23T16:41:43;4.00;99.90
8862;DHT22;4799;50.996;4.754;2023-01-23T16:44:11;4.00;99.90
8862;DHT22;4799;50.996;4.754;2023-01-23T16:46:38;3.90;99.90
8862;DHT22;4799;50.996;4.754;2023-01-23T16:49:03;3.90;99.90
8862;DHT22;4799;50.996;4.754;2023-01-23T16:51:29;3.90;99.90
8862;DHT22;4799;50.996;4.754;2023-01-23T16:53:57;3.90;99.90
8862;DHT22;4799;50.996;4.754;2023-01-23T16:56:33;3.90;99.90
8862;DHT22;4799;50.996;4.754;2023-01-23T16:58:59;3.90;99.90
8862;DHT22;4799;50.996;4.754;2023-01-23T17:01:25;3.90;99.90
8862;DHT22;4799;50.996;4.754;2023-01-23T17:03:56;3.80;99.90
8862;DHT22;4799;50.996;4.754;2023-01-23T17:06:23;3.80;99.90
8862;DHT22;4799;50.996;4.754;2023-01-23T17:08:49;3.80;99.90
8862;DHT22;4799;50.996;4.754;2023-01-23T17:11:23;3.80;99.90
8862;DHT22;4799;50.996;4.754;2023-01-23T17:13:55;3.80;99.90
8862;DHT22;4799;50.996;4.754;2023-01-23T17:16:21;3.80;99.90
8862;DHT22;4799;50.996;4.754;2023-01-23T17:18:47;3.80;99.90
8862;DHT22;4799;50.996;4.754;2023-01-23T17:21:17;3.80;99.90
8862;DHT22;4799;50.996;4.754;2023-01-23T17:23:43;3.70;99.90
8862;DHT22;4799;50.996;4.754;2023-01-23T17:26:16;3.80;99.90
8862;DHT22;4799;50.996;4.754;2023-01-23T17:28:42;3.80;99.90
8862;DHT22;4799;50.996;4.754;2023-01-23T17:31:15;3.80;99.90
8862;DHT22;4799;50.996;4.754;2023-01-23T17:33:43;3.80;99.90
8862;DHT22;4799;50.996;4.754;2023-01-23T17:36:09;3.80;99.90
8862;DHT22;4799;50.996;4.754;2023-01-23T17:38:37;3.70;99.90
8862;DHT22;4799;50.996;4.754;2023-01-23T17:41:02;3.70;99.90
8862;DHT22;4799;50.996;4.754;2023-01-23T17:43:31;3.80;99.90
8862;DHT22;4799;50.996;4.754;2023-01-23T17:45:57;3.70;99.90
8862;DHT22;4799;50.996;4.754;2023-01-23T17:48:36;3.80;99.90
8862;DHT22;4799;50.996;4.754;2023-01-23T17:51:03;3.70;99.90
8862;DHT22;4799;50.996;4.754;2023-01-23T17:53:29;3.70;99.90
8862;DHT22;4799;50.996;4.754;2023-01-23T17:55:55;3.70;99.90
8862;DHT22;4799;50.996;4.754;2023-01-23T17:58:21;3.70;99.90
8862;DHT22;4799;50.996;4.754;2023-01-23T18:00:48;3.70;99.90
8862;DHT22;4799;50.996;4.754;2023-01-23T18:03:24;3.70;99.90
8862;DHT22;4799;50.996;4.754;2023-01-23T18:05:50;3.70;99.90
8862;DHT22;4799;50.996;4.754;2023-01-23T18:08:17;3.70;99.90
8862;DHT22;4799;50.996;4.754;2023-01-23T18:10:45;3.70;99.90
8862;DHT22;4799;50.996;4.754;2023-01-23T18:16:09;3.70;99.90
8862;DHT22;4799;50.996;4.754;2023-01-23T18:18:38;3.70;99.90
8862;DHT22;4799;50.996;4.754;2023-01-23T18:21:11;3.70;99.90
8862;DHT22;4799;50.996;4.754;2023-01-23T18:23:38;3.70;99.90
8862;DHT22;4799;50.996;4.754;2023-01-23T18:26:27;3.70;99.90
8862;DHT22;4799;50.996;4.754;2023-01-23T18:35:01;3.70;99.90
8862;DHT22;4799;50.996;4.754;2023-01-23T18:37:51;3.70;99.90
8862;DHT22;4799;50.996;4.754;2023-01-23T18:45:56;3.70;99.90
8862;DHT22;4799;50.996;4.754;2023-01-23T18:48:22;3.70;99.90